createdAt,value
2023-01-02T00:01:45.111Z,6.40
2023-01-02T00:04:13.527Z,5.80
2023-01-02T00:06:41.914Z,5.73
2023-01-02T00:09:10.484Z,6.47
2023-01-02T00:11:38.929Z,5.47
2023-01-02T00:14:07.538Z,5.30
2023-01-02T00:16:36.067Z,5.83
2023-01-02T00:19:07.077Z,5.00
2023-01-02T00:21:35.632Z,6.13
2023-01-02T00:24:04.211Z,5.67
2023-01-02T00:26:32.759Z,5.00
2023-01-02T00:29:02.478Z,6.00
2023-01-02T00:31:31.202Z,5.10
2023-01-02T00:34:00.304Z,5.77
2023-01-02T00:36:30.365Z,5.27
2023-01-02T00:38:59.197Z,5.17
2023-01-02T00:41:28.117Z,5.80
2023-01-02T00:43:56.662Z,5.20
2023-01-02T00:46:25.247Z,5.37
2023-01-02T00:48:53.850Z,5.37
2023-01-02T00:51:22.309Z,5.40
2023-01-02T00:53:52.360Z,5.67
2023-01-02T00:56:20.987Z,4.90
2023-01-02T00:58:49.471Z,5.27
2023-01-02T01:01:18.313Z,4.97
2023-01-02T01:03:46.951Z,4.87
2023-01-02T01:06:15.896Z,5.03
2023-01-02T01:08:44.946Z,5.40
2023-01-02T01:11:17.519Z,5.37
2023-01-02T01:13:46.515Z,5.73
2023-01-02T01:16:16.936Z,4.97
2023-01-02T01:18:45.962Z,6.17
2023-01-02T01:21:16.848Z,5.70
2023-01-02T01:23:46.203Z,5.43
2023-01-02T01:26:16.854Z,5.83
2023-01-02T01:28:45.379Z,5.80
2023-01-02T01:31:15.603Z,6.13
2023-01-02T01:33:45.054Z,6.47
2023-01-02T01:36:15.993Z,6.80
2023-01-02T01:38:45.475Z,7.07
2023-01-02T01:41:17.523Z,6.70
2023-01-02T01:43:50.318Z,7.60
2023-01-02T01:46:25.204Z,8.30
2023-01-02T01:49:00.393Z,9.50
2023-01-02T01:51:31.203Z,8.20
2023-01-02T01:54:06.701Z,8.97
2023-01-02T01:56:39.739Z,8.70
2023-01-02T01:59:10.797Z,9.13
2023-01-02T02:01:40.651Z,9.57
2023-01-02T02:04:10.718Z,10.10
2023-01-02T02:06:39.727Z,9.90
2023-01-02T02:09:13.905Z,9.83
2023-01-02T02:11:44.284Z,9.60
2023-01-02T02:14:12.948Z,8.63
2023-01-02T02:16:47.892Z,9.43
2023-01-02T02:20:00.474Z,9.10
2023-01-02T02:23:03.571Z,8.70
2023-01-02T02:26:24.301Z,8.27
2023-01-02T02:29:25.472Z,9.03
2023-01-02T02:32:03.492Z,9.67
2023-01-02T02:34:39.827Z,9.97
2023-01-02T02:37:16.069Z,8.93
2023-01-02T02:39:56.114Z,9.07
2023-01-02T02:42:37.751Z,9.07
2023-01-02T02:45:12.053Z,8.43
2023-01-02T02:47:50.641Z,8.53
2023-01-02T02:50:24.975Z,9.03
2023-01-02T02:53:00.110Z,9.47
2023-01-02T02:55:32.609Z,11.90
2023-01-02T02:58:02.834Z,21.80
2023-01-02T03:00:31.384Z,18.70
2023-01-02T03:03:01.514Z,14.30
2023-01-02T03:05:36.900Z,10.33
2023-01-02T03:08:12.949Z,10.20
2023-01-02T03:10:48.178Z,8.80
2023-01-02T03:13:24.177Z,8.93
2023-01-02T03:16:01.938Z,9.17
2023-01-02T03:18:37.425Z,14.30
2023-01-02T03:21:10.668Z,10.83
2023-01-02T03:23:44.738Z,8.73
2023-01-02T03:26:16.984Z,8.33
2023-01-02T03:28:50.449Z,8.23
2023-01-02T03:31:21.615Z,8.47
2023-01-02T03:33:54.633Z,9.63
2023-01-02T03:36:26.461Z,9.17
2023-01-02T03:39:02.117Z,8.30
2023-01-02T03:41:34.994Z,9.57
2023-01-02T03:44:05.849Z,11.00
2023-01-02T03:46:39.964Z,11.90
2023-01-02T03:49:17.469Z,10.03
2023-01-02T03:51:46.194Z,9.93
2023-01-02T03:54:17.129Z,10.03
2023-01-02T03:56:54.463Z,8.57
2023-01-02T03:59:36.217Z,7.27
2023-01-02T04:02:11.977Z,7.90
2023-01-02T04:04:50.889Z,6.97
2023-01-02T04:07:26.489Z,6.10
2023-01-02T04:09:56.033Z,5.73
2023-01-02T04:12:26.464Z,5.47
2023-01-02T04:14:59.475Z,5.30
2023-01-02T04:17:30.249Z,5.67
2023-01-02T04:20:03.596Z,5.23
2023-01-02T04:22:37.918Z,5.50
2023-01-02T04:25:13.782Z,6.17
2023-01-02T04:27:48.109Z,6.70
2023-01-02T04:30:16.988Z,6.97
2023-01-02T04:32:46.961Z,6.50
2023-01-02T04:35:21.384Z,7.10
2023-01-02T04:37:50.322Z,7.40
2023-01-02T04:40:24.204Z,7.23
2023-01-02T04:42:53.423Z,6.40
2023-01-02T04:45:22.177Z,6.33
2023-01-02T04:47:51.149Z,6.47
2023-01-02T04:50:21.285Z,6.37
2023-01-02T04:52:50.279Z,6.97
2023-01-02T04:55:18.821Z,6.23
2023-01-02T04:57:47.538Z,7.20
2023-01-02T05:00:16.968Z,6.27
2023-01-02T05:02:45.499Z,6.43
2023-01-02T05:05:13.947Z,5.70
2023-01-02T05:07:43.995Z,6.30
2023-01-02T05:10:12.777Z,6.20
2023-01-02T05:12:41.722Z,5.63
2023-01-02T05:15:11.879Z,7.00
2023-01-02T05:17:41.729Z,7.83
2023-01-02T05:20:12.106Z,6.33
2023-01-02T05:22:58.582Z,5.20
2023-01-02T05:25:29.341Z,5.47
2023-01-02T05:27:57.770Z,5.17
2023-01-02T05:30:26.287Z,4.93
2023-01-02T05:32:55.322Z,4.87
2023-01-02T05:35:28.469Z,4.13
2023-01-02T05:37:59.050Z,3.77
2023-01-02T05:40:28.931Z,4.30
2023-01-02T05:42:57.349Z,3.87
2023-01-02T05:45:25.770Z,4.53
2023-01-02T05:47:54.190Z,4.03
2023-01-02T05:50:22.797Z,4.17
2023-01-02T05:52:51.462Z,3.30
2023-01-02T05:55:20.129Z,4.37
2023-01-02T05:57:49.971Z,5.60
2023-01-02T06:00:18.946Z,5.33
2023-01-02T06:02:48.667Z,4.80
2023-01-02T06:05:17.656Z,4.93
2023-01-02T06:07:46.160Z,6.77
2023-01-02T06:10:14.602Z,6.00
2023-01-02T06:12:42.980Z,5.57
2023-01-02T06:15:13.401Z,5.60
2023-01-02T06:17:41.855Z,10.80
2023-01-02T06:20:11.516Z,13.40
2023-01-02T06:22:40.062Z,15.30
2023-01-02T06:25:09.768Z,8.33
2023-01-02T06:27:38.303Z,4.70
2023-01-02T06:30:07.783Z,3.80
2023-01-02T06:32:37.665Z,3.07
2023-01-02T06:35:07.109Z,3.23
2023-01-02T06:37:35.495Z,2.80
2023-01-02T06:40:03.940Z,2.70
2023-01-02T06:42:33.237Z,2.77
2023-01-02T06:45:01.970Z,2.90
2023-01-02T06:47:30.612Z,3.00
2023-01-02T06:50:00.583Z,3.00
2023-01-02T06:52:29.723Z,2.93
2023-01-02T06:54:58.175Z,3.30
2023-01-02T06:57:26.693Z,3.73
2023-01-02T06:59:55.075Z,4.67
2023-01-02T07:02:23.788Z,5.80
2023-01-02T07:04:52.241Z,5.90
2023-01-02T07:07:22.234Z,4.97
2023-01-02T07:09:50.976Z,5.07
2023-01-02T07:12:19.583Z,4.30
2023-01-02T07:14:48.108Z,4.47
2023-01-02T07:17:16.803Z,4.37
2023-01-02T07:19:51.463Z,4.27
2023-01-02T07:22:23.586Z,4.50
2023-01-02T07:24:52.122Z,4.47
2023-01-02T07:27:20.579Z,4.00
2023-01-02T07:29:49.110Z,5.23
2023-01-02T07:32:22.459Z,5.47
2023-01-02T07:34:54.102Z,4.97
2023-01-02T07:37:24.018Z,5.07
2023-01-02T07:39:52.406Z,6.03
2023-01-02T07:42:20.888Z,7.27
2023-01-02T07:44:49.728Z,7.70
2023-01-02T07:47:18.211Z,7.10
2023-01-02T07:49:46.767Z,7.43
2023-01-02T07:52:17.971Z,6.70
2023-01-02T07:54:47.936Z,5.73
2023-01-02T07:57:16.407Z,5.87
2023-01-02T07:59:47.267Z,5.77
2023-01-02T08:02:15.761Z,5.83
2023-01-02T08:04:44.221Z,6.07
2023-01-02T08:07:12.642Z,5.67
2023-01-02T08:09:41.116Z,5.23
2023-01-02T08:12:11.251Z,4.40
2023-01-02T08:14:39.754Z,5.10
2023-01-02T08:17:08.314Z,5.07
2023-01-02T08:19:36.789Z,5.00
2023-01-02T08:22:05.267Z,5.10
2023-01-02T08:24:33.752Z,5.83
2023-01-02T08:27:02.664Z,4.97
2023-01-02T08:29:33.193Z,5.47
2023-01-02T08:32:01.775Z,4.63
2023-01-02T08:34:30.669Z,5.10
2023-01-02T08:36:59.169Z,4.50
2023-01-02T08:39:27.992Z,4.97
2023-01-02T08:41:58.282Z,4.80
2023-01-02T08:44:26.979Z,5.17
2023-01-02T08:46:56.888Z,4.20
2023-01-02T08:49:25.374Z,4.10
2023-01-02T08:51:53.857Z,5.47
2023-01-02T08:54:22.462Z,5.30
2023-01-02T08:56:51.032Z,5.57
2023-01-02T08:59:19.634Z,5.80
2023-01-02T09:01:48.365Z,3.87
2023-01-02T09:04:18.442Z,4.13
2023-01-02T09:06:47.439Z,4.00
2023-01-02T09:09:17.575Z,4.60
2023-01-02T09:11:50.814Z,4.20
2023-01-02T09:14:21.203Z,4.40
2023-01-02T09:16:50.503Z,4.50
2023-01-02T09:19:21.464Z,4.17
2023-01-02T09:21:50.535Z,5.00
2023-01-02T09:24:19.330Z,3.60
2023-01-02T09:26:48.025Z,3.90
2023-01-02T09:29:16.815Z,3.40
2023-01-02T09:31:45.327Z,4.27
2023-01-02T09:34:14.710Z,3.50
2023-01-02T09:36:44.617Z,5.30
2023-01-02T09:39:13.210Z,3.77
2023-01-02T09:41:44.269Z,4.63
2023-01-02T09:44:17.652Z,5.40
2023-01-02T09:46:51.472Z,5.17
2023-01-02T09:49:23.743Z,4.10
2023-01-02T09:51:54.171Z,5.10
2023-01-02T09:54:26.500Z,5.20
2023-01-02T09:57:08.940Z,3.63
2023-01-02T09:59:43.216Z,3.70
2023-01-02T10:02:26.366Z,3.93
2023-01-02T10:05:11.466Z,3.50
2023-01-02T10:07:49.147Z,2.97
2023-01-02T10:10:26.393Z,3.10
2023-01-02T10:13:04.070Z,3.20
2023-01-02T10:15:34.069Z,3.00
2023-01-02T10:18:13.125Z,3.43
2023-01-02T10:20:45.256Z,3.27
2023-01-02T10:23:19.950Z,3.50
2023-01-02T10:25:54.730Z,5.17
2023-01-02T10:28:29.687Z,3.70
2023-01-02T10:31:06.910Z,67.77
2023-01-02T10:33:44.127Z,165.53
2023-01-02T10:36:23.749Z,37.53
2023-01-02T10:38:54.713Z,6.67
2023-01-02T10:41:23.261Z,4.03
2023-01-02T10:43:55.951Z,3.80
2023-01-02T10:46:24.489Z,4.60
2023-01-02T10:48:53.053Z,3.67
2023-01-02T10:51:21.877Z,3.43
2023-01-02T10:54:03.145Z,3.77
2023-01-02T10:56:33.912Z,4.33
2023-01-02T10:59:03.512Z,4.93
2023-01-02T11:01:32.455Z,11.60
2023-01-02T11:04:12.526Z,25.27
2023-01-02T11:06:52.301Z,9.83
2023-01-02T11:09:23.868Z,4.60
2023-01-02T11:11:55.212Z,4.10
2023-01-02T11:14:28.423Z,4.20
2023-01-02T11:17:05.231Z,3.20
2023-01-02T11:19:41.533Z,3.67
2023-01-02T11:22:10.755Z,3.70
2023-01-02T11:24:59.866Z,3.60
2023-01-02T11:27:33.008Z,3.87
2023-01-02T11:30:02.157Z,3.40
2023-01-02T11:32:38.776Z,3.80
2023-01-02T11:35:28.183Z,3.10
2023-01-02T11:37:56.743Z,3.30
2023-01-02T11:40:29.707Z,3.67
2023-01-02T11:43:21.287Z,3.37
2023-01-02T11:45:50.066Z,3.60
2023-01-02T11:48:23.378Z,3.67
2023-01-02T11:50:53.048Z,3.33
2023-01-02T11:53:28.663Z,2.90
2023-01-02T11:56:04.013Z,3.17
2023-01-02T11:58:38.758Z,3.33
2023-01-02T12:01:13.237Z,6.17
2023-01-02T12:03:42.175Z,4.27
2023-01-02T12:06:18.598Z,8.47
2023-01-02T12:09:00.987Z,3.70
2023-01-02T12:11:46.017Z,3.87
2023-01-02T12:14:18.279Z,4.13
2023-01-02T12:16:54.069Z,4.30
2023-01-02T12:19:44.424Z,3.90
2023-01-02T12:22:29.484Z,4.07
2023-01-02T12:25:09.554Z,3.40
2023-01-02T12:27:51.418Z,3.60
2023-01-02T12:30:22.004Z,9.30
2023-01-02T12:33:22.848Z,6.87
2023-01-02T12:36:03.294Z,4.50
2023-01-02T12:38:47.849Z,4.47
2023-01-02T12:41:27.169Z,5.13
2023-01-02T12:44:18.853Z,13.47
2023-01-02T12:47:06.819Z,6.23
2023-01-02T12:49:51.061Z,7.03
2023-01-02T12:52:32.597Z,7.83
2023-01-02T12:55:18.177Z,11.33
2023-01-02T12:57:55.839Z,20.33
2023-01-02T13:00:51.103Z,8.97
2023-01-02T13:03:45.101Z,8.37
2023-01-02T13:06:45.889Z,6.07
2023-01-02T13:09:14.605Z,4.53
2023-01-02T13:11:53.541Z,6.43
2023-01-02T13:14:25.360Z,4.43
2023-01-02T13:17:06.504Z,5.07
2023-01-02T13:19:41.719Z,5.40
2023-01-02T13:22:20.222Z,5.03
2023-01-02T13:24:49.810Z,4.67
2023-01-02T13:27:18.977Z,4.80
2023-01-02T13:29:47.928Z,5.43
2023-01-02T13:32:29.271Z,6.00
2023-01-02T13:35:00.557Z,12.17
2023-01-02T13:37:31.079Z,7.43
2023-01-02T13:40:02.559Z,8.17
2023-01-02T13:42:52.677Z,6.77
2023-01-02T13:45:25.572Z,5.80
2023-01-02T13:47:57.850Z,14.40
2023-01-02T13:50:30.360Z,6.30
2023-01-02T13:53:07.217Z,6.23
2023-01-02T13:55:37.386Z,4.80
2023-01-02T13:58:37.898Z,4.70
2023-01-02T14:01:33.347Z,5.60
2023-01-02T14:04:32.162Z,4.50
2023-01-02T14:07:40.267Z,4.73
2023-01-02T14:10:42.007Z,4.67
2023-01-02T14:13:22.590Z,4.27
2023-01-02T14:16:23.652Z,4.97
2023-01-02T14:19:18.401Z,39.20
2023-01-02T14:21:51.901Z,11.53
2023-01-02T14:24:31.847Z,5.40
2023-01-02T14:27:05.907Z,4.70
2023-01-02T14:29:50.617Z,4.90
2023-01-02T14:32:25.669Z,4.40
2023-01-02T14:34:58.747Z,5.87
2023-01-02T14:37:38.881Z,4.97
2023-01-02T14:40:19.972Z,5.97
2023-01-02T14:43:11.792Z,4.90
2023-01-02T14:45:45.818Z,6.27
2023-01-02T14:48:18.529Z,5.17
2023-01-02T14:50:49.992Z,5.30
2023-01-02T14:53:23.942Z,5.10
2023-01-02T14:55:56.028Z,5.20
2023-01-02T14:58:36.287Z,5.83
2023-01-02T15:01:06.315Z,5.60
2023-01-02T15:03:44.178Z,6.03
2023-01-02T15:06:19.798Z,6.27
2023-01-02T15:08:52.951Z,5.10
2023-01-02T15:11:43.003Z,8.30
2023-01-02T15:14:19.025Z,5.23
2023-01-02T15:16:54.839Z,5.40
2023-01-02T15:19:26.801Z,4.90
2023-01-02T15:21:56.200Z,4.53
2023-01-02T15:24:30.361Z,5.00
2023-01-02T15:27:14.599Z,5.40
2023-01-02T15:29:47.632Z,5.20
2023-01-02T15:32:21.011Z,6.83
2023-01-02T15:34:51.810Z,11.17
2023-01-02T15:37:23.335Z,27.83
2023-01-02T15:39:56.529Z,21.30
2023-01-02T15:42:45.465Z,9.90
2023-01-02T15:45:17.235Z,8.93
2023-01-02T15:47:48.290Z,22.07
2023-01-02T15:50:20.716Z,8.57
2023-01-02T15:52:51.362Z,10.90
2023-01-02T15:55:22.444Z,8.67
2023-01-02T15:57:55.575Z,7.50
2023-01-02T16:00:36.818Z,8.23
2023-01-02T16:03:06.333Z,8.43
2023-01-02T16:05:48.209Z,7.03
2023-01-02T16:08:21.740Z,8.13
2023-01-02T16:11:01.550Z,7.57
2023-01-02T16:13:49.808Z,7.03
2023-01-02T16:16:20.255Z,7.97
2023-01-02T16:18:51.994Z,33.97
2023-01-02T16:21:21.323Z,45.77
2023-01-02T16:23:54.101Z,8.10
2023-01-02T16:26:31.066Z,8.33
2023-01-02T16:29:00.119Z,7.23
2023-01-02T16:31:29.755Z,9.03
2023-01-02T16:34:16.362Z,7.77
2023-01-02T16:36:45.172Z,7.30
2023-01-02T16:39:42.196Z,9.50
2023-01-02T16:42:29.106Z,7.07
2023-01-02T16:44:58.540Z,6.23
2023-01-02T16:47:33.593Z,7.47
2023-01-02T16:50:02.353Z,7.40
2023-01-02T16:52:31.213Z,7.17
2023-01-02T16:54:59.897Z,7.37
2023-01-02T16:57:30.657Z,6.87
2023-01-02T16:59:59.162Z,6.93
2023-01-02T17:02:27.977Z,7.57
2023-01-02T17:04:56.528Z,8.00
2023-01-02T17:07:25.500Z,7.27
2023-01-02T17:09:54.045Z,7.53
2023-01-02T17:12:23.636Z,13.97
2023-01-02T17:14:53.847Z,21.70
2023-01-02T17:17:22.432Z,15.77
2023-01-02T17:19:51.162Z,11.50
2023-01-02T17:22:19.723Z,9.33
2023-01-02T17:24:48.276Z,8.63
2023-01-02T17:27:16.732Z,7.20
2023-01-02T17:29:45.678Z,9.43
2023-01-02T17:32:15.751Z,9.47
2023-01-02T17:34:44.217Z,7.27
2023-01-02T17:37:12.883Z,7.27
2023-01-02T17:39:41.509Z,6.60
2023-01-02T17:42:11.513Z,7.47
2023-01-02T17:44:40.379Z,7.97
2023-01-02T17:47:57.870Z,7.43
2023-01-02T17:49:59.112Z,7.90
2023-01-02T17:52:27.511Z,7.47
2023-01-02T17:54:56.908Z,7.67
2023-01-02T17:57:26.268Z,7.47
2023-01-02T17:59:54.783Z,8.63
2023-01-02T18:02:23.473Z,7.07
2023-01-02T18:04:55.184Z,7.23
2023-01-02T18:07:25.495Z,6.93
2023-01-02T18:10:12.569Z,6.03
2023-01-02T18:12:43.459Z,7.23
2023-01-02T18:15:15.616Z,6.63
2023-01-02T18:17:44.610Z,6.53
2023-01-02T18:20:15.276Z,7.30
2023-01-02T18:22:50.176Z,7.47
2023-01-02T18:25:21.676Z,7.70
2023-01-02T18:27:50.358Z,8.43
2023-01-02T18:30:21.510Z,8.60
2023-01-02T18:32:51.669Z,8.20
2023-01-02T18:38:21.233Z,7.63
2023-01-02T18:40:49.735Z,7.43
2023-01-02T18:43:23.636Z,8.53
2023-01-02T18:45:54.754Z,7.50
2023-01-02T18:48:24.752Z,7.87
2023-01-02T18:51:01.575Z,7.33
2023-01-02T18:53:38.205Z,7.73
2023-01-02T18:56:20.501Z,68.53
2023-01-02T18:58:56.144Z,13.87
2023-01-02T19:01:28.157Z,8.53
2023-01-02T19:04:14.891Z,7.83
2023-01-02T19:06:49.841Z,7.40
2023-01-02T19:09:21.574Z,8.07
2023-01-02T19:12:12.680Z,6.97
2023-01-02T19:14:42.632Z,8.03
2023-01-02T19:17:21.368Z,7.57
2023-01-02T19:19:50.313Z,7.90
2023-01-02T19:22:21.387Z,7.07
2023-01-02T19:24:51.809Z,7.90
2023-01-02T19:27:25.818Z,8.00
2023-01-02T19:29:55.087Z,7.17
2023-01-02T19:32:28.223Z,8.00
2023-01-02T19:34:58.995Z,10.73
2023-01-02T19:37:39.381Z,9.40
2023-01-02T19:40:19.053Z,9.67
2023-01-02T19:42:49.014Z,7.33
2023-01-02T19:45:18.964Z,7.37
2023-01-02T19:47:48.360Z,7.60
2023-01-02T19:50:21.411Z,6.97
2023-01-02T19:52:50.104Z,8.37
2023-01-02T19:55:20.434Z,11.63
2023-01-02T19:57:52.085Z,10.87
2023-01-02T20:00:21.417Z,7.53
2023-01-02T20:02:51.717Z,7.53
2023-01-02T20:05:22.512Z,7.73
2023-01-02T20:07:52.280Z,7.00
2023-01-02T20:10:22.455Z,7.10
2023-01-02T20:12:51.475Z,6.13
2023-01-02T20:15:23.719Z,40.80
2023-01-02T20:17:53.631Z,90.23
2023-01-02T20:20:23.370Z,105.27
2023-01-02T20:22:52.905Z,135.43
2023-01-02T20:25:26.748Z,59.83
2023-01-02T20:27:56.574Z,72.13
2023-01-02T20:30:25.589Z,12.37
2023-01-02T20:32:54.809Z,8.20
2023-01-02T20:35:24.007Z,141.30
2023-01-02T20:37:52.554Z,101.13
2023-01-02T20:40:22.405Z,239.13
2023-01-02T20:42:50.989Z,86.80
2023-01-02T20:45:19.594Z,79.73
2023-01-02T20:47:48.111Z,105.53
2023-01-02T20:50:17.791Z,43.43
2023-01-02T20:52:46.237Z,9.47
2023-01-02T20:55:15.149Z,131.53
2023-01-02T20:57:47.190Z,38.20
2023-01-02T21:00:20.619Z,28.60
2023-01-02T21:02:51.152Z,28.47
2023-01-02T21:05:19.768Z,46.97
2023-01-02T21:07:48.285Z,13.47
2023-01-02T21:10:16.985Z,7.03
2023-01-02T21:13:02.487Z,5.97
2023-01-02T21:15:52.038Z,5.50
2023-01-02T21:18:23.493Z,5.77
2023-01-02T21:20:54.278Z,5.40
2023-01-02T21:23:24.349Z,5.40
2023-01-02T21:25:53.788Z,5.30
2023-01-02T21:28:24.624Z,5.30
2023-01-02T21:30:53.424Z,5.07
2023-01-02T21:33:24.881Z,5.37
2023-01-02T21:35:55.416Z,5.17
2023-01-02T21:38:25.202Z,5.23
2023-01-02T21:40:54.341Z,5.07
2023-01-02T21:43:24.990Z,5.57
2023-01-02T21:45:53.550Z,5.50
2023-01-02T21:48:21.957Z,5.27
2023-01-02T21:50:50.404Z,5.37
2023-01-02T21:53:18.807Z,5.57
2023-01-02T21:55:47.265Z,5.60
2023-01-02T21:58:15.773Z,5.23
2023-01-02T22:00:45.751Z,5.67
2023-01-02T22:03:14.487Z,5.17
2023-01-02T22:05:43.034Z,5.90
2023-01-02T22:08:11.632Z,5.77
2023-01-02T22:10:40.120Z,5.60
2023-01-02T22:13:08.505Z,5.57
2023-01-02T22:15:37.044Z,6.23
2023-01-02T22:18:07.186Z,6.40
2023-01-02T22:20:35.958Z,12.77
2023-01-02T22:23:05.417Z,14.77
2023-01-02T22:25:33.980Z,8.33
2023-01-02T22:28:02.490Z,8.57
2023-01-02T22:30:34.759Z,6.00
2023-01-02T22:33:04.247Z,6.17
2023-01-02T22:35:34.255Z,5.73
2023-01-02T22:38:02.813Z,7.13
2023-01-02T22:40:31.421Z,9.03
2023-01-02T22:43:02.137Z,6.87
2023-01-02T22:45:36.151Z,25.80
2023-01-02T22:48:08.864Z,70.70
2023-01-02T22:50:44.180Z,21.13
2023-01-02T22:53:20.004Z,9.40
2023-01-02T22:55:48.891Z,26.10
2023-01-02T22:58:17.826Z,23.13
2023-01-02T23:00:48.099Z,7.13
2023-01-02T23:03:18.275Z,7.20
2023-01-02T23:05:48.596Z,16.70
2023-01-02T23:08:17.323Z,12.63
2023-01-02T23:10:46.395Z,59.13
2023-01-02T23:13:14.964Z,7.17
2023-01-02T23:15:57.105Z,9.80
2023-01-02T23:18:42.879Z,6.80
2023-01-02T23:21:13.090Z,5.97
2023-01-02T23:23:41.808Z,6.23
2023-01-02T23:26:10.820Z,6.37
2023-01-02T23:29:05.950Z,6.63
2023-01-02T23:31:28.280Z,6.37
2023-01-02T23:33:57.023Z,6.17
2023-01-02T23:36:27.567Z,5.90
2023-01-02T23:38:56.709Z,6.00
2023-01-02T23:41:25.619Z,5.63
2023-01-02T23:43:54.406Z,6.13
2023-01-02T23:46:23.097Z,6.03
2023-01-02T23:48:51.568Z,6.40
2023-01-02T23:51:19.953Z,6.30
2023-01-02T23:53:50.141Z,6.17
2023-01-02T23:56:21.346Z,16.03
2023-01-02T23:58:50.799Z,6.87
